Terminal Aerodrome Forecast
Issued by NWS

Home | Current Version | Previous Version | Text Only | Print | Product List | Glossary On
Versions: 1 2 3 4 5 6 7 8 9 10 11 12 13
000
FTUS42 TJSJ 061700 RRA
TAFISX
TAF
TISX 061740Z 0618/0718 09017G28KT P6SM FEW025 SCT040 BKN070
     FM062300 07009KT P6SM SCT025
     FM071300 11017G25KT P6SM FEW025
      AMD NOT SKED=

USA.gov is the U.S. government's official web portal to all federal, state and local government web resources and services.